Herndon, Kentucky
Current Conditions -  °F | °C
As of 10:58 AM on Sunday 21 Dec 2014 (Local Time) from KHOP Reporting Station
Clear Clear  
Wind Chill: 36°   Ceiling: Unl
Heat Index: 42°   Visibility: 10mi
Dew Point: 31°   Wind: 8mph
Humidity: 65%   Direction: 110°ESE
Pressure: 30.21"   Gusts: NA
Location:  36.73°N, 87.57°W
Report Text: KHOP 211658Z AUTO 11007KT 10SM CLR 05/M01 A3021 RMK AO2 SLP236 T00531008
Loading
Personal Weather Stations






























Interactive Weather Map New forecast layout! Learn more

10-Day Weather Forecast

Advertisements
Track Severe Weather on mobile